EDDM 200020Z 13004KT CAVOK 16/14 Q1024 NOSIG EDDM 192350Z 15007KT CAVOK 16/14 Q1024 NOSIG EDDM 192320Z 03006KT 9999 SCT045TCU 18/14 Q1025 NOSIG EDDM 192250Z 33007KT 310V010 9999 -SHRA FEW040CB SCT060TCU 19/13 Q1025 NOSIG EDDM 192220Z 33010KT 300V010 9999 -SHRA FEW040CB SCT060TCU 21/13 Q1025 NOSIG EDDM 192150Z 29010KT 9999 -SHRA FEW040CB SCT060TCU 22/12 Q1024 NOSIG EDDM 192120Z 26009KT 9999 FEW060TCU 22/12 Q1023 NOSIG EDDM 192050Z 26010KT 9999 FEW060TCU 22/13 Q1023 NOSIG EDDM 192020Z 27008KT 9999 FEW060TCU 23/13 Q1022 TEMPO TSRA SCT030CB EDDM 191950Z 26011KT 9999 FEW060TCU 23/14 Q1022 TEMPO TSRA SCT030CB EDDM 191920Z 23012KT CAVOK 24/14 Q1022 TEMPO TSRA SCT030CB EDDM 191850Z 20004KT 150V220 CAVOK 25/15 Q1021 NOSIG EDDM 191820Z VRB02KT CAVOK 25/15 Q1021 NOSIG EDDM 191750Z VRB02KT CAVOK 26/15 Q1021 NOSIG EDDM 191720Z 28002KT CAVOK 26/14 Q1021 NOSIG EDDM 191650Z 26004KT 230V300 CAVOK 27/15 Q1021 NOSIG EDDM 191620Z 27003KT 230V320 CAVOK 29/16 Q1021 NOSIG EDDM 191550Z 28004KT CAVOK 28/14 Q1021 NOSIG EDDM 191520Z VRB03KT CAVOK 29/15 Q1021 NOSIG EDDM 191450Z 26004KT 230V310 CAVOK 28/14 Q1021 NOSIG EDDM 191420Z 26004KT 220V310 CAVOK 28/15 Q1021 NOSIG EDDM 191350Z 29007KT 240V330 CAVOK 28/14 Q1022 NOSIG EDDM 191320Z 27004KT 230V320 CAVOK 28/16 Q1022 NOSIG EDDM 191250Z 29006KT 240V340 CAVOK 27/15 Q1022 NOSIG EDDM 191220Z 25005KT 140V290 CAVOK 27/15 Q1022 NOSIG EDDM 191150Z 28006KT 230V320 CAVOK 26/15 Q1022 NOSIG EDDM 191120Z 29005KT 220V320 CAVOK 25/14 Q1022 NOSIG EDDM 191050Z VRB03KT CAVOK 25/15 Q1023 NOSIG EDDM 191020Z 23003KT 160V300 CAVOK 24/15 Q1023 BECMG 26008KT EDDM 190950Z 21003KT 130V270 CAVOK 24/14 Q1023 BECMG 26008KT EDDM 190920Z VRB03KT CAVOK 22/12 Q1023 BECMG 21005KT EDDM 190850Z VRB04KT CAVOK 21/11 Q1023 BECMG 21005KT EDDM 190820Z 08003KT 030V180 CAVOK 19/11 Q1023 BECMG 21005KT EDDM 190750Z 09004KT 040V160 CAVOK 18/10 Q1023 NOSIG EDDM 190720Z 10005KT 060V130 CAVOK 17/08 Q1023 NOSIG EDDM 190650Z 09006KT CAVOK 15/07 Q1023 NOSIG EDDM 190620Z 09006KT 050V120 CAVOK 14/07 Q1023 NOSIG EDDM 190550Z 08005KT CAVOK 13/06 Q1023 NOSIG EDDM 190520Z 07003KT 030V110 CAVOK 12/06 Q1023 NOSIG EDDM 190450Z 06004KT CAVOK 11/06 Q1023 NOSIG EDDM 190420Z 04004KT CAVOK 10/05 Q1023 NOSIG EDDM 190350Z 03003KT CAVOK 08/06 Q1023 NOSIG EDDM 190320Z VRB02KT CAVOK 06/05 Q1023 NOSIG EDDM 190250Z 03003KT CAVOK 08/05 Q1023 NOSIG EDDM 190220Z 04004KT CAVOK 08/06 Q1023 NOSIG EDDM 190150Z 03003KT CAVOK 09/06 Q1023 NOSIG EDDM 190120Z 06005KT 030V090 CAVOK 10/05 Q1023 NOSIG EDDM 190050Z 06006KT CAVOK 10/06 Q1023 NOSIG EDDM 190020Z 05004KT CAVOK 12/06 Q1023 NOSIG EDDM 182350Z 06004KT CAVOK 12/06 Q1023 NOSIG EDDM 182320Z 07004KT CAVOK 13/06 Q1023 NOSIG EDDM 182250Z 06005KT CAVOK 13/07 Q1024 NOSIG EDDM 182220Z 04004KT CAVOK 14/08 Q1024 NOSIG EDDM 182150Z 07003KT CAVOK 14/08 Q1024 NOSIG EDDM 182120Z VRB02KT CAVOK 15/08 Q1024 NOSIG EDDM 182050Z 09004KT CAVOK 16/08 Q1024 NOSIG EDDM 182020Z 08005KT CAVOK 16/08 Q1024 NOSIG EDDM 181950Z 09005KT CAVOK 17/09 Q1024 NOSIG EDDM 181920Z 09006KT CAVOK 18/09 Q1024 NOSIG EDDM 181850Z 07006KT CAVOK 18/09 Q1024 NOSIG EDDM 181820Z 07007KT CAVOK 19/10 Q1024 NOSIG EDDM 181750Z 07008KT CAVOK 21/10 Q1024 NOSIG EDDM 181720Z 08008KT CAVOK 21/10 Q1024 NOSIG EDDM 181650Z 07008KT 040V100 CAVOK 22/09 Q1024 NOSIG EDDM 181620Z 07008KT CAVOK 22/10 Q1024 NOSIG EDDM 181550Z 08009KT CAVOK 23/10 Q1024 NOSIG EDDM 181520Z 08007KT CAVOK 23/11 Q1024 NOSIG EDDM 181450Z 10011KT 070V130 CAVOK 23/11 Q1024 NOSIG EDDM 181420Z 09008KT 030V130 CAVOK 23/12 Q1024 NOSIG EDDM 181350Z 09007KT 040V130 CAVOK 23/11 Q1024 NOSIG EDDM 181320Z 08007KT 040V110 CAVOK 23/12 Q1024 NOSIG EDDM 181250Z 06007KT 010V110 9999 FEW049 23/12 Q1024 NOSIG

METAR Messwerte "MUNICH-FLUGHAFEN" EDDM

Zurück zur Übersicht

Ortsname
Ländercode / m ü. NN
Zeit Temperatur Taupunkt Rel.
Luftfeuchte
Luftdruck:
Altimeter
NN
Station
Wind in Beaufort
(Knoten)
Sichtweite
(Meter)
Wolken
(Meter über Grund)
Wettererscheinung
MUNICH-FLUGHAFEN
DE 445
Fr 20.05. 02:20161488 %1024
1024
971
SO 2 (4)>= 10000Nicht signifikant 
MUNICH-FLUGHAFEN
DE 445
Fr 20.05. 01:50161488 %1024
1024
971
SSO 3 (7)>= 10000Nicht signifikant 
MUNICH-FLUGHAFEN
DE 445
Fr 20.05. 01:20181477 %1025
1025
972
NNO 2 (6)>= 10000Wolkig (1400) 
MUNICH-FLUGHAFEN
DE 445
Fr 20.05. 00:50191368 %1025
1024
972
NNW 3 (7)
NW - N
>= 10000Wolkig (1800)
Leicht bewölkt Cb (1200)
Regen-Schauer (schwach)
MUNICH-FLUGHAFEN
DE 445
Fr 20.05. 00:20211360 %1025
1024
972
NNW 3 (10)
WNW - N
>= 10000Wolkig (1800)
Leicht bewölkt Cb (1200)
Regen-Schauer (schwach)
MUNICH-FLUGHAFEN
DE 445
Do 19.05. 23:50221253 %1024
1023
971
WNW 3 (10)>= 10000Wolkig (1800)
Leicht bewölkt Cb (1200)
Regen-Schauer (schwach)
MUNICH-FLUGHAFEN
DE 445
Do 19.05. 23:20221253 %1023
1022
970
W 3 (9)>= 10000Leicht bewölkt (1800) 
MUNICH-FLUGHAFEN
DE 445
Do 19.05. 22:50221357 %1023
1022
970
W 3 (10)>= 10000Leicht bewölkt (1800) 
MUNICH-FLUGHAFEN
DE 445
Do 19.05. 22:20231353 %1022
1021
969
W 3 (8)>= 10000Leicht bewölkt (1800) Bald zeitweise: Gewitter mit Regen
MUNICH-FLUGHAFEN
DE 445
Do 19.05. 21:50231457 %1022
1021
969
W 4 (11)>= 10000Leicht bewölkt (1800) Bald zeitweise: Gewitter mit Regen
MUNICH-FLUGHAFEN
DE 445
Do 19.05. 21:20241454 %1022
1020
969
SW 4 (12)>= 10000Nicht signifikant Bald zeitweise: Gewitter mit Regen
MUNICH-FLUGHAFEN
DE 445
Do 19.05. 20:50251554 %1021
1019
968
SSW 2 (4)
SSO - SW
>= 10000Nicht signifikant 
MUNICH-FLUGHAFEN
DE 445
Do 19.05. 20:20251554 %1021
1019
968
Uml 1 (2)>= 10000Nicht signifikant 
MUNICH-FLUGHAFEN
DE 445
Do 19.05. 19:50261551 %1021
1019
968
Uml 1 (2)>= 10000Nicht signifikant 
MUNICH-FLUGHAFEN
DE 445
Do 19.05. 19:20261448 %1021
1019
968
W 1 (2)>= 10000Nicht signifikant 
MUNICH-FLUGHAFEN
DE 445
Do 19.05. 18:50271548 %1021
1019
968
W 2 (4)
SW - WNW
>= 10000Nicht signifikant 
MUNICH-FLUGHAFEN
DE 445
Do 19.05. 18:20291645 %1021
1019
968
W 2 (3)
SW - NW
>= 10000Nicht signifikant 
MUNICH-FLUGHAFEN
DE 445
Do 19.05. 17:50281442 %1021
1019
968
W 2 (4)>= 10000Nicht signifikant 
MUNICH-FLUGHAFEN
DE 445
Do 19.05. 17:20291543 %1021
1019
968
Uml 2 (3)>= 10000Nicht signifikant 
MUNICH-FLUGHAFEN
DE 445
Do 19.05. 16:50281442 %1021
1019
968
W 2 (4)
SW - NW
>= 10000Nicht signifikant 
MUNICH-FLUGHAFEN
DE 445
Do 19.05. 16:20281545 %1021
1019
968
W 2 (4)
SW - NW
>= 10000Nicht signifikant 
MUNICH-FLUGHAFEN
DE 445
Do 19.05. 15:50281442 %1022
1020
969
WNW 3 (7)
WSW - NNW
>= 10000Nicht signifikant 
MUNICH-FLUGHAFEN
DE 445
Do 19.05. 15:20281648 %1022
1020
969
W 2 (4)
SW - NW
>= 10000Nicht signifikant 
MUNICH-FLUGHAFEN
DE 445
Do 19.05. 14:50271548 %1022
1020
969
WNW 2 (6)
WSW - NNW
>= 10000Nicht signifikant 
MUNICH-FLUGHAFEN
DE 445
Do 19.05. 14:20271548 %1022
1020
969
WSW 2 (5)
SO - WNW
>= 10000Nicht signifikant 
MUNICH-FLUGHAFEN
DE 445
Do 19.05. 13:50261551 %1022
1020
969
W 2 (6)
SW - NW
>= 10000Nicht signifikant 
MUNICH-FLUGHAFEN
DE 445
Do 19.05. 13:20251450 %1022
1020
969
WNW 2 (5)
SW - NW
>= 10000Nicht signifikant 
MUNICH-FLUGHAFEN
DE 445
Do 19.05. 12:50251554 %1023
1021
970
Uml 2 (3)>= 10000Nicht signifikant 
MUNICH-FLUGHAFEN
DE 445
Do 19.05. 12:20241557 %1023
1021
970
SW 2 (3)
SSO - WNW
Bald Übergang zu:
W 3 (8)
>= 10000Nicht signifikant 
MUNICH-FLUGHAFEN
DE 445
Do 19.05. 11:50241454 %1023
1021
970
SSW 2 (3)
SO - W
Bald Übergang zu:
W 3 (8)
>= 10000Nicht signifikant 
MUNICH-FLUGHAFEN
DE 445
Do 19.05. 11:20221253 %1023
1022
970
Uml 2 (3)
Bald Übergang zu:
SSW 2 (5)
>= 10000Nicht signifikant 
MUNICH-FLUGHAFEN
DE 445
Do 19.05. 10:50211153 %1023
1022
970
Uml 2 (4)
Bald Übergang zu:
SSW 2 (5)
>= 10000Nicht signifikant 
MUNICH-FLUGHAFEN
DE 445
Do 19.05. 10:20191160 %1023
1022
970
O 2 (3)
NNO - S
Bald Übergang zu:
SSW 2 (5)
>= 10000Nicht signifikant 
MUNICH-FLUGHAFEN
DE 445
Do 19.05. 09:50181059 %1023
1023
970
O 2 (4)
NO - SSO
>= 10000Nicht signifikant 
MUNICH-FLUGHAFEN
DE 445
Do 19.05. 09:2017855 %1023
1023
970
O 2 (5)
ONO - SO
>= 10000Nicht signifikant 
MUNICH-FLUGHAFEN
DE 445
Do 19.05. 08:5015759 %1023
1023
970
O 2 (6)>= 10000Nicht signifikant 
MUNICH-FLUGHAFEN
DE 445
Do 19.05. 08:2014763 %1023
1023
970
O 2 (6)
NO - OSO
>= 10000Nicht signifikant 
MUNICH-FLUGHAFEN
DE 445
Do 19.05. 07:5013662 %1023
1023
970
O 2 (5)>= 10000Nicht signifikant 
MUNICH-FLUGHAFEN
DE 445
Do 19.05. 07:2012667 %1023
1024
970
ONO 2 (3)
NNO - OSO
>= 10000Nicht signifikant 
MUNICH-FLUGHAFEN
DE 445
Do 19.05. 06:5011671 %1023
1024
970
ONO 2 (4)>= 10000Nicht signifikant 
MUNICH-FLUGHAFEN
DE 445
Do 19.05. 06:2010571 %1023
1024
970
NO 2 (4)>= 10000Nicht signifikant 
MUNICH-FLUGHAFEN
DE 445
Do 19.05. 05:508687 %1023
1024
970
NNO 2 (3)>= 10000Nicht signifikant 
MUNICH-FLUGHAFEN
DE 445
Do 19.05. 05:206593 %1023
1025
970
Uml 1 (2)>= 10000Nicht signifikant 
MUNICH-FLUGHAFEN
DE 445
Do 19.05. 04:508581 %1023
1024
970
NNO 2 (3)>= 10000Nicht signifikant 
MUNICH-FLUGHAFEN
DE 445
Do 19.05. 04:208687 %1023
1024
970
NO 2 (4)>= 10000Nicht signifikant 
MUNICH-FLUGHAFEN
DE 445
Do 19.05. 03:509681 %1023
1024
970
NNO 2 (3)>= 10000Nicht signifikant 
MUNICH-FLUGHAFEN
DE 445
Do 19.05. 03:2010571 %1023
1024
970
ONO 2 (5)
NNO - O
>= 10000Nicht signifikant 
MUNICH-FLUGHAFEN
DE 445
Do 19.05. 02:5010676 %1023
1024
970
ONO 2 (6)>= 10000Nicht signifikant 
MUNICH-FLUGHAFEN
DE 445
Do 19.05. 02:2012667 %1023
1024
970
NO 2 (4)>= 10000Nicht signifikant 
MUNICH-FLUGHAFEN
DE 445
Do 19.05. 01:5012667 %1023
1024
970
ONO 2 (4)>= 10000Nicht signifikant 
MUNICH-FLUGHAFEN
DE 445
Do 19.05. 01:2013662 %1023
1023
970
ONO 2 (4)>= 10000Nicht signifikant 
MUNICH-FLUGHAFEN
DE 445
Do 19.05. 00:5013767 %1024
1024
971
ONO 2 (5)>= 10000Nicht signifikant 
MUNICH-FLUGHAFEN
DE 445
Do 19.05. 00:2014867 %1024
1024
971
NO 2 (4)>= 10000Nicht signifikant 
MUNICH-FLUGHAFEN
DE 445
Mi 18.05. 23:5014867 %1024
1024
971
ONO 2 (3)>= 10000Nicht signifikant 
MUNICH-FLUGHAFEN
DE 445
Mi 18.05. 23:2015863 %1024
1024
971
Uml 1 (2)>= 10000Nicht signifikant 
MUNICH-FLUGHAFEN
DE 445
Mi 18.05. 22:5016859 %1024
1024
971
O 2 (4)>= 10000Nicht signifikant 
MUNICH-FLUGHAFEN
DE 445
Mi 18.05. 22:2016859 %1024
1024
971
O 2 (5)>= 10000Nicht signifikant 
MUNICH-FLUGHAFEN
DE 445
Mi 18.05. 21:5017959 %1024
1024
971
O 2 (5)>= 10000Nicht signifikant 
MUNICH-FLUGHAFEN
DE 445
Mi 18.05. 21:2018956 %1024
1024
971
O 2 (6)>= 10000Nicht signifikant 
MUNICH-FLUGHAFEN
DE 445
Mi 18.05. 20:5018956 %1024
1024
971
ONO 2 (6)>= 10000Nicht signifikant 
MUNICH-FLUGHAFEN
DE 445
Mi 18.05. 20:20191056 %1024
1023
971
ONO 3 (7)>= 10000Nicht signifikant 
MUNICH-FLUGHAFEN
DE 445
Mi 18.05. 19:50211049 %1024
1023
971
ONO 3 (8)>= 10000Nicht signifikant 
MUNICH-FLUGHAFEN
DE 445
Mi 18.05. 19:20211049 %1024
1023
971
O 3 (8)>= 10000Nicht signifikant 
MUNICH-FLUGHAFEN
DE 445
Mi 18.05. 18:5022943 %1024
1023
971
ONO 3 (8)
NO - O
>= 10000Nicht signifikant 
MUNICH-FLUGHAFEN
DE 445
Mi 18.05. 18:20221046 %1024
1023
971
ONO 3 (8)>= 10000Nicht signifikant 
MUNICH-FLUGHAFEN
DE 445
Mi 18.05. 17:50231044 %1024
1023
971
O 3 (9)>= 10000Nicht signifikant 
MUNICH-FLUGHAFEN
DE 445
Mi 18.05. 17:20231147 %1024
1023
971
O 3 (7)>= 10000Nicht signifikant 
MUNICH-FLUGHAFEN
DE 445
Mi 18.05. 16:50231147 %1024
1023
971
O 4 (11)
ONO - SO
>= 10000Nicht signifikant 
MUNICH-FLUGHAFEN
DE 445
Mi 18.05. 16:20231250 %1024
1023
971
O 3 (8)
NNO - SO
>= 10000Nicht signifikant 
MUNICH-FLUGHAFEN
DE 445
Mi 18.05. 15:50231147 %1024
1023
971
O 3 (7)
NO - SO
>= 10000Nicht signifikant 
MUNICH-FLUGHAFEN
DE 445
Mi 18.05. 15:20231250 %1024
1023
971
O 3 (7)
NO - OSO
>= 10000Nicht signifikant 
MUNICH-FLUGHAFEN
DE 445
Mi 18.05. 14:50231250 %1024
1023
971
ONO 3 (7)
N - OSO
>= 10000Leicht bewölkt (1500) 

Altimeter: Einstellung am Altimeter (Höhenmesser), die Höhe 0 muss auf diesen Luftdruckwert zeigen, damit das Gerät die Stationshöhe richtig anzeigt.

NN: Luftdruck reduziert auf "Normal Null", auf Meereshöhe, dieser von der Temperatur abhängige Wert wird bisweilen unkorrekt einfach als "Luftdruck" bezeichnet. Eigentlich nur eine fiktive Größe, die es erlaubt, Stationen auf unterschiedlichen Höhen miteinander zu vergleichen.

Station: Realer Luftdruck an der Station.